Terminal Aerodrome Forecast
Issued by NWS

Home | Current Version | Previous Version | Text Only | Print | Product List | Glossary On
Versions: 1 2 3 4 5 6 7 8 9 10 11 12 13 14 15 16
000
FTUS44 KCRP 261132
TAFLRD
TAF
KLRD 261132Z 2612/2712 15010KT 6SM BR OVC015
     FM261530 15010KT P6SM SCT025 BKN040
     FM262200 13011KT P6SM SCT050
     FM270200 12014KT P6SM FEW050 BKN250
     FM270900 14009KT P6SM OVC012=

USA.gov is the U.S. government's official web portal to all federal, state and local government web resources and services.